sensor_id;sensor_type;location;lat;lon;timestamp;P1;durP1;ratioP1;P2;durP2;ratioP2
17181;SDS011;8706;48.254;16.422;2023-09-18T00:01:03;2.20;;;2.10;;
17181;SDS011;8706;48.254;16.422;2023-09-18T00:03:30;2.20;;;2.10;;
17181;SDS011;8706;48.254;16.422;2023-09-18T00:05:58;2.40;;;2.30;;
17181;SDS011;8706;48.254;16.422;2023-09-18T00:08:25;2.50;;;2.30;;
17181;SDS011;8706;48.254;16.422;2023-09-18T00:10:54;2.67;;;2.47;;
17181;SDS011;8706;48.254;16.422;2023-09-18T00:13:21;2.20;;;2.10;;
17181;SDS011;8706;48.254;16.422;2023-09-18T00:15:48;2.30;;;2.20;;
17181;SDS011;8706;48.254;16.422;2023-09-18T00:18:16;2.10;;;2.00;;
17181;SDS011;8706;48.254;16.422;2023-09-18T00:20:43;2.27;;;2.17;;
17181;SDS011;8706;48.254;16.422;2023-09-18T00:23:13;2.37;;;2.27;;
17181;SDS011;8706;48.254;16.422;2023-09-18T00:25:40;2.13;;;2.03;;
17181;SDS011;8706;48.254;16.422;2023-09-18T00:28:09;2.60;;;2.40;;
17181;SDS011;8706;48.254;16.422;2023-09-18T00:30:37;2.40;;;2.30;;
17181;SDS011;8706;48.254;16.422;2023-09-18T00:33:08;2.20;;;2.10;;
17181;SDS011;8706;48.254;16.422;2023-09-18T00:35:35;2.20;;;2.10;;
17181;SDS011;8706;48.254;16.422;2023-09-18T00:38:02;2.67;;;2.47;;
17181;SDS011;8706;48.254;16.422;2023-09-18T00:40:29;2.60;;;2.40;;
17181;SDS011;8706;48.254;16.422;2023-09-18T00:42:56;2.40;;;2.30;;
17181;SDS011;8706;48.254;16.422;2023-09-18T00:45:24;2.40;;;2.30;;
17181;SDS011;8706;48.254;16.422;2023-09-18T00:47:51;2.37;;;2.27;;
17181;SDS011;8706;48.254;16.422;2023-09-18T00:50:19;2.20;;;2.10;;
17181;SDS011;8706;48.254;16.422;2023-09-18T00:52:46;2.20;;;2.10;;
17181;SDS011;8706;48.254;16.422;2023-09-18T00:55:14;2.20;;;2.10;;
17181;SDS011;8706;48.254;16.422;2023-09-18T00:57:41;2.67;;;2.47;;
17181;SDS011;8706;48.254;16.422;2023-09-18T01:00:09;2.40;;;2.30;;
17181;SDS011;8706;48.254;16.422;2023-09-18T01:02:41;2.33;;;2.23;;
17181;SDS011;8706;48.254;16.422;2023-09-18T01:05:10;2.20;;;2.10;;
17181;SDS011;8706;48.254;16.422;2023-09-18T01:07:37;2.47;;;2.30;;
17181;SDS011;8706;48.254;16.422;2023-09-18T01:10:04;2.60;;;2.50;;
17181;SDS011;8706;48.254;16.422;2023-09-18T01:12:33;2.60;;;2.40;;
17181;SDS011;8706;48.254;16.422;2023-09-18T01:15:06;2.50;;;2.30;;
17181;SDS011;8706;48.254;16.422;2023-09-18T01:17:38;2.30;;;2.20;;
17181;SDS011;8706;48.254;16.422;2023-09-18T01:20:08;2.13;;;2.03;;
17181;SDS011;8706;48.254;16.422;2023-09-18T01:22:37;2.40;;;2.30;;
17181;SDS011;8706;48.254;16.422;2023-09-18T01:25:05;2.37;;;2.27;;
17181;SDS011;8706;48.254;16.422;2023-09-18T01:27:33;2.70;;;2.50;;
17181;SDS011;8706;48.254;16.422;2023-09-18T01:30:00;2.40;;;2.30;;
17181;SDS011;8706;48.254;16.422;2023-09-18T01:32:27;2.23;;;2.13;;
17181;SDS011;8706;48.254;16.422;2023-09-18T01:34:57;2.30;;;2.20;;
17181;SDS011;8706;48.254;16.422;2023-09-18T01:37:27;2.50;;;2.40;;
17181;SDS011;8706;48.254;16.422;2023-09-18T01:39:57;2.10;;;2.00;;
17181;SDS011;8706;48.254;16.422;2023-09-18T01:42:24;2.00;;;1.90;;
17181;SDS011;8706;48.254;16.422;2023-09-18T01:44:52;2.30;;;2.20;;
17181;SDS011;8706;48.254;16.422;2023-09-18T01:47:20;2.33;;;2.23;;
17181;SDS011;8706;48.254;16.422;2023-09-18T01:49:49;2.30;;;2.20;;
17181;SDS011;8706;48.254;16.422;2023-09-18T01:52:16;2.03;;;1.93;;
17181;SDS011;8706;48.254;16.422;2023-09-18T01:54:43;2.53;;;2.40;;
17181;SDS011;8706;48.254;16.422;2023-09-18T01:57:12;2.50;;;2.40;;
17181;SDS011;8706;48.254;16.422;2023-09-18T01:59:39;1.93;;;1.83;;
17181;SDS011;8706;48.254;16.422;2023-09-18T02:02:07;2.47;;;2.33;;
17181;SDS011;8706;48.254;16.422;2023-09-18T02:04:34;2.27;;;2.17;;
17181;SDS011;8706;48.254;16.422;2023-09-18T02:07:02;2.30;;;2.20;;
17181;SDS011;8706;48.254;16.422;2023-09-18T02:09:29;2.30;;;2.10;;
17181;SDS011;8706;48.254;16.422;2023-09-18T02:11:56;2.17;;;2.07;;
17181;SDS011;8706;48.254;16.422;2023-09-18T02:14:24;2.37;;;2.27;;
17181;SDS011;8706;48.254;16.422;2023-09-18T02:16:51;2.40;;;2.30;;
17181;SDS011;8706;48.254;16.422;2023-09-18T02:19:19;2.10;;;2.00;;
17181;SDS011;8706;48.254;16.422;2023-09-18T02:21:46;2.30;;;2.20;;
17181;SDS011;8706;48.254;16.422;2023-09-18T02:24:13;2.37;;;2.27;;
17181;SDS011;8706;48.254;16.422;2023-09-18T02:26:39;2.40;;;2.30;;
17181;SDS011;8706;48.254;16.422;2023-09-18T02:29:10;2.17;;;2.07;;
17181;SDS011;8706;48.254;16.422;2023-09-18T02:31:40;2.37;;;2.27;;
17181;SDS011;8706;48.254;16.422;2023-09-18T02:34:07;2.20;;;2.10;;
17181;SDS011;8706;48.254;16.422;2023-09-18T02:36:34;2.10;;;2.00;;
17181;SDS011;8706;48.254;16.422;2023-09-18T02:39:01;2.20;;;2.10;;
17181;SDS011;8706;48.254;16.422;2023-09-18T02:41:28;2.03;;;1.93;;
17181;SDS011;8706;48.254;16.422;2023-09-18T02:43:55;2.27;;;2.17;;
17181;SDS011;8706;48.254;16.422;2023-09-18T02:46:22;2.20;;;2.10;;
17181;SDS011;8706;48.254;16.422;2023-09-18T02:48:50;2.30;;;2.20;;
17181;SDS011;8706;48.254;16.422;2023-09-18T02:51:17;2.33;;;2.23;;
17181;SDS011;8706;48.254;16.422;2023-09-18T02:53:44;2.30;;;2.20;;
17181;SDS011;8706;48.254;16.422;2023-09-18T02:56:11;2.20;;;2.10;;
17181;SDS011;8706;48.254;16.422;2023-09-18T02:58:38;2.40;;;2.20;;
17181;SDS011;8706;48.254;16.422;2023-09-18T03:01:06;2.17;;;2.07;;
17181;SDS011;8706;48.254;16.422;2023-09-18T03:03:34;2.53;;;2.33;;
17181;SDS011;8706;48.254;16.422;2023-09-18T03:06:02;2.30;;;2.20;;
17181;SDS011;8706;48.254;16.422;2023-09-18T03:08:31;2.37;;;2.27;;
17181;SDS011;8706;48.254;16.422;2023-09-18T03:10:58;2.50;;;2.40;;
17181;SDS011;8706;48.254;16.422;2023-09-18T03:13:27;2.10;;;2.00;;
17181;SDS011;8706;48.254;16.422;2023-09-18T03:15:54;2.37;;;2.27;;
17181;SDS011;8706;48.254;16.422;2023-09-18T03:18:22;2.23;;;2.13;;
17181;SDS011;8706;48.254;16.422;2023-09-18T03:20:48;2.30;;;2.20;;
17181;SDS011;8706;48.254;16.422;2023-09-18T03:23:17;2.33;;;2.23;;
17181;SDS011;8706;48.254;16.422;2023-09-18T03:25:44;2.40;;;2.30;;
17181;SDS011;8706;48.254;16.422;2023-09-18T03:28:10;2.30;;;2.20;;
17181;SDS011;8706;48.254;16.422;2023-09-18T03:30:37;2.30;;;2.20;;
17181;SDS011;8706;48.254;16.422;2023-09-18T03:33:04;2.43;;;2.33;;
17181;SDS011;8706;48.254;16.422;2023-09-18T03:35:31;2.40;;;2.30;;
17181;SDS011;8706;48.254;16.422;2023-09-18T03:37:58;2.30;;;2.20;;
17181;SDS011;8706;48.254;16.422;2023-09-18T03:40:27;2.20;;;2.10;;
17181;SDS011;8706;48.254;16.422;2023-09-18T03:42:54;2.33;;;2.23;;
17181;SDS011;8706;48.254;16.422;2023-09-18T03:45:21;2.20;;;2.10;;
17181;SDS011;8706;48.254;16.422;2023-09-18T03:47:48;2.13;;;2.03;;
17181;SDS011;8706;48.254;16.422;2023-09-18T03:50:16;2.10;;;2.00;;
17181;SDS011;8706;48.254;16.422;2023-09-18T03:52:43;2.40;;;2.27;;
17181;SDS011;8706;48.254;16.422;2023-09-18T03:55:10;2.37;;;2.20;;
17181;SDS011;8706;48.254;16.422;2023-09-18T03:57:38;2.50;;;2.37;;
17181;SDS011;8706;48.254;16.422;2023-09-18T04:00:06;2.57;;;2.47;;
17181;SDS011;8706;48.254;16.422;2023-09-18T04:02:33;2.00;;;1.90;;
17181;SDS011;8706;48.254;16.422;2023-09-18T04:05:00;2.50;;;2.40;;
17181;SDS011;8706;48.254;16.422;2023-09-18T04:07:28;2.33;;;2.23;;
17181;SDS011;8706;48.254;16.422;2023-09-18T04:09:56;2.40;;;2.30;;
17181;SDS011;8706;48.254;16.422;2023-09-18T04:12:23;2.47;;;2.37;;
17181;SDS011;8706;48.254;16.422;2023-09-18T04:14:51;2.30;;;2.20;;
17181;SDS011;8706;48.254;16.422;2023-09-18T04:17:18;2.40;;;2.30;;
17181;SDS011;8706;48.254;16.422;2023-09-18T04:19:45;2.40;;;2.30;;
17181;SDS011;8706;48.254;16.422;2023-09-18T04:22:13;2.63;;;2.43;;
17181;SDS011;8706;48.254;16.422;2023-09-18T04:24:40;2.20;;;2.10;;
17181;SDS011;8706;48.254;16.422;2023-09-18T04:27:07;2.50;;;2.30;;
17181;SDS011;8706;48.254;16.422;2023-09-18T04:29:34;3.10;;;2.90;;
17181;SDS011;8706;48.254;16.422;2023-09-18T04:32:03;2.40;;;2.30;;
17181;SDS011;8706;48.254;16.422;2023-09-18T04:34:31;2.30;;;2.20;;
17181;SDS011;8706;48.254;16.422;2023-09-18T04:36:58;2.43;;;2.33;;
17181;SDS011;8706;48.254;16.422;2023-09-18T04:39:25;2.47;;;2.37;;
17181;SDS011;8706;48.254;16.422;2023-09-18T04:41:51;2.63;;;2.43;;
17181;SDS011;8706;48.254;16.422;2023-09-18T04:44:18;2.60;;;2.40;;
17181;SDS011;8706;48.254;16.422;2023-09-18T04:46:45;2.43;;;2.33;;
17181;SDS011;8706;48.254;16.422;2023-09-18T04:49:13;2.20;;;2.10;;
17181;SDS011;8706;48.254;16.422;2023-09-18T04:51:40;2.63;;;2.50;;
17181;SDS011;8706;48.254;16.422;2023-09-18T04:54:09;2.30;;;2.20;;
17181;SDS011;8706;48.254;16.422;2023-09-18T04:56:35;2.30;;;2.20;;
17181;SDS011;8706;48.254;16.422;2023-09-18T04:59:03;2.43;;;2.33;;
17181;SDS011;8706;48.254;16.422;2023-09-18T05:01:29;2.47;;;2.37;;
17181;SDS011;8706;48.254;16.422;2023-09-18T05:03:57;2.50;;;2.40;;
17181;SDS011;8706;48.254;16.422;2023-09-18T05:06:25;2.93;;;2.73;;
17181;SDS011;8706;48.254;16.422;2023-09-18T05:08:52;2.60;;;2.50;;
17181;SDS011;8706;48.254;16.422;2023-09-18T05:11:19;2.70;;;2.60;;
17181;SDS011;8706;48.254;16.422;2023-09-18T05:13:46;2.87;;;2.67;;
17181;SDS011;8706;48.254;16.422;2023-09-18T05:16:16;2.40;;;2.30;;
17181;SDS011;8706;48.254;16.422;2023-09-18T05:18:43;2.70;;;2.60;;
17181;SDS011;8706;48.254;16.422;2023-09-18T05:21:10;2.60;;;2.50;;
17181;SDS011;8706;48.254;16.422;2023-09-18T05:23:38;3.00;;;2.80;;
17181;SDS011;8706;48.254;16.422;2023-09-18T05:26:05;2.63;;;2.50;;
17181;SDS011;8706;48.254;16.422;2023-09-18T05:28:32;3.10;;;2.90;;
17181;SDS011;8706;48.254;16.422;2023-09-18T05:30:59;3.23;;;3.03;;
17181;SDS011;8706;48.254;16.422;2023-09-18T05:33:26;3.20;;;3.00;;
17181;SDS011;8706;48.254;16.422;2023-09-18T05:35:53;2.70;;;2.60;;
17181;SDS011;8706;48.254;16.422;2023-09-18T05:38:21;3.10;;;2.90;;
17181;SDS011;8706;48.254;16.422;2023-09-18T05:40:49;2.93;;;2.73;;
17181;SDS011;8706;48.254;16.422;2023-09-18T05:43:16;2.83;;;2.63;;
17181;SDS011;8706;48.254;16.422;2023-09-18T05:45:43;3.10;;;2.90;;
17181;SDS011;8706;48.254;16.422;2023-09-18T05:48:10;2.87;;;2.67;;
17181;SDS011;8706;48.254;16.422;2023-09-18T05:50:38;2.93;;;2.73;;
17181;SDS011;8706;48.254;16.422;2023-09-18T05:53:06;2.60;;;2.50;;
17181;SDS011;8706;48.254;16.422;2023-09-18T05:55:34;2.90;;;2.70;;
17181;SDS011;8706;48.254;16.422;2023-09-18T05:58:02;2.63;;;2.53;;
17181;SDS011;8706;48.254;16.422;2023-09-18T06:00:32;2.90;;;2.70;;
17181;SDS011;8706;48.254;16.422;2023-09-18T06:02:59;3.30;;;3.10;;
17181;SDS011;8706;48.254;16.422;2023-09-18T06:05:26;3.20;;;3.00;;
17181;SDS011;8706;48.254;16.422;2023-09-18T06:07:53;3.20;;;3.00;;
17181;SDS011;8706;48.254;16.422;2023-09-18T06:10:20;3.07;;;2.87;;
17181;SDS011;8706;48.254;16.422;2023-09-18T06:12:47;2.80;;;2.70;;
17181;SDS011;8706;48.254;16.422;2023-09-18T06:15:15;3.23;;;3.03;;
17181;SDS011;8706;48.254;16.422;2023-09-18T06:17:44;3.13;;;2.93;;
17181;SDS011;8706;48.254;16.422;2023-09-18T06:20:11;3.00;;;2.80;;
17181;SDS011;8706;48.254;16.422;2023-09-18T06:22:41;2.87;;;2.70;;
17181;SDS011;8706;48.254;16.422;2023-09-18T06:25:08;3.00;;;2.80;;
17181;SDS011;8706;48.254;16.422;2023-09-18T06:27:36;3.20;;;3.00;;
17181;SDS011;8706;48.254;16.422;2023-09-18T06:30:06;3.23;;;3.03;;
17181;SDS011;8706;48.254;16.422;2023-09-18T06:32:35;3.40;;;3.20;;
17181;SDS011;8706;48.254;16.422;2023-09-18T06:35:03;3.07;;;2.87;;
17181;SDS011;8706;48.254;16.422;2023-09-18T06:37:30;3.10;;;2.90;;
17181;SDS011;8706;48.254;16.422;2023-09-18T06:39:59;3.50;;;3.30;;
17181;SDS011;8706;48.254;16.422;2023-09-18T06:42:29;3.20;;;3.00;;
17181;SDS011;8706;48.254;16.422;2023-09-18T06:44:55;3.17;;;2.97;;
17181;SDS011;8706;48.254;16.422;2023-09-18T06:47:22;3.20;;;3.00;;
17181;SDS011;8706;48.254;16.422;2023-09-18T06:49:51;3.33;;;3.13;;
17181;SDS011;8706;48.254;16.422;2023-09-18T06:52:18;3.13;;;2.93;;
17181;SDS011;8706;48.254;16.422;2023-09-18T06:54:45;3.10;;;2.90;;
17181;SDS011;8706;48.254;16.422;2023-09-18T06:57:12;3.07;;;2.87;;
17181;SDS011;8706;48.254;16.422;2023-09-18T06:59:39;3.20;;;3.00;;
17181;SDS011;8706;48.254;16.422;2023-09-18T07:02:06;3.17;;;2.97;;
17181;SDS011;8706;48.254;16.422;2023-09-18T07:04:33;3.30;;;3.10;;
17181;SDS011;8706;48.254;16.422;2023-09-18T07:07:01;3.17;;;2.97;;
17181;SDS011;8706;48.254;16.422;2023-09-18T07:09:28;3.33;;;3.13;;
17181;SDS011;8706;48.254;16.422;2023-09-18T07:11:55;3.20;;;3.00;;
17181;SDS011;8706;48.254;16.422;2023-09-18T07:14:22;2.87;;;2.77;;
17181;SDS011;8706;48.254;16.422;2023-09-18T07:16:49;3.10;;;2.90;;
17181;SDS011;8706;48.254;16.422;2023-09-18T07:19:16;3.20;;;3.00;;
17181;SDS011;8706;48.254;16.422;2023-09-18T07:21:43;3.10;;;2.90;;
17181;SDS011;8706;48.254;16.422;2023-09-18T07:24:11;3.30;;;3.10;;
17181;SDS011;8706;48.254;16.422;2023-09-18T07:26:43;3.40;;;3.20;;
17181;SDS011;8706;48.254;16.422;2023-09-18T07:29:11;3.70;;;3.40;;
17181;SDS011;8706;48.254;16.422;2023-09-18T07:31:38;3.20;;;3.00;;
17181;SDS011;8706;48.254;16.422;2023-09-18T07:34:06;3.00;;;2.83;;
17181;SDS011;8706;48.254;16.422;2023-09-18T07:36:33;2.77;;;2.63;;
17181;SDS011;8706;48.254;16.422;2023-09-18T07:38:59;3.40;;;3.20;;
17181;SDS011;8706;48.254;16.422;2023-09-18T07:41:28;3.57;;;3.37;;
17181;SDS011;8706;48.254;16.422;2023-09-18T07:43:54;3.10;;;2.90;;
17181;SDS011;8706;48.254;16.422;2023-09-18T07:46:22;3.00;;;2.80;;
17181;SDS011;8706;48.254;16.422;2023-09-18T07:48:49;2.93;;;2.80;;
17181;SDS011;8706;48.254;16.422;2023-09-18T07:51:17;3.43;;;3.23;;
17181;SDS011;8706;48.254;16.422;2023-09-18T07:53:43;3.57;;;3.37;;
17181;SDS011;8706;48.254;16.422;2023-09-18T07:56:10;3.10;;;2.90;;
17181;SDS011;8706;48.254;16.422;2023-09-18T07:58:38;3.03;;;2.83;;
17181;SDS011;8706;48.254;16.422;2023-09-18T08:01:05;3.57;;;3.37;;
17181;SDS011;8706;48.254;16.422;2023-09-18T08:03:34;3.10;;;2.90;;
17181;SDS011;8706;48.254;16.422;2023-09-18T08:06:01;3.57;;;3.27;;
17181;SDS011;8706;48.254;16.422;2023-09-18T08:08:29;3.30;;;3.10;;
17181;SDS011;8706;48.254;16.422;2023-09-18T08:10:58;3.17;;;2.97;;
17181;SDS011;8706;48.254;16.422;2023-09-18T08:13:28;3.40;;;3.20;;
17181;SDS011;8706;48.254;16.422;2023-09-18T08:15:56;3.13;;;2.93;;
17181;SDS011;8706;48.254;16.422;2023-09-18T08:18:23;3.20;;;3.00;;
17181;SDS011;8706;48.254;16.422;2023-09-18T08:20:51;3.10;;;2.90;;
17181;SDS011;8706;48.254;16.422;2023-09-18T08:23:19;3.27;;;3.00;;
17181;SDS011;8706;48.254;16.422;2023-09-18T08:25:46;3.33;;;3.13;;
17181;SDS011;8706;48.254;16.422;2023-09-18T08:28:16;2.83;;;2.72;;
17181;SDS011;8706;48.254;16.422;2023-09-18T08:30:43;2.92;;;2.83;;
17181;SDS011;8706;48.254;16.422;2023-09-18T08:33:13;2.83;;;2.63;;
17181;SDS011;8706;48.254;16.422;2023-09-18T08:35:40;3.05;;;2.85;;
17181;SDS011;8706;48.254;16.422;2023-09-18T08:38:07;3.05;;;2.85;;
17181;SDS011;8706;48.254;16.422;2023-09-18T08:40:34;3.42;;;3.22;;
17181;SDS011;8706;48.254;16.422;2023-09-18T08:43:01;3.13;;;2.95;;
17181;SDS011;8706;48.254;16.422;2023-09-18T08:45:31;3.22;;;2.97;;
17181;SDS011;8706;48.254;16.422;2023-09-18T08:48:04;3.20;;;3.00;;
17181;SDS011;8706;48.254;16.422;2023-09-18T08:50:33;3.47;;;3.22;;
17181;SDS011;8706;48.254;16.422;2023-09-18T08:53:02;3.15;;;2.95;;
17181;SDS011;8706;48.254;16.422;2023-09-18T08:55:30;3.10;;;2.90;;
17181;SDS011;8706;48.254;16.422;2023-09-18T08:57:58;2.95;;;2.85;;
17181;SDS011;8706;48.254;16.422;2023-09-18T09:00:25;3.05;;;2.85;;
17181;SDS011;8706;48.254;16.422;2023-09-18T09:02:53;3.03;;;2.83;;
17181;SDS011;8706;48.254;16.422;2023-09-18T09:05:21;2.97;;;2.78;;
17181;SDS011;8706;48.254;16.422;2023-09-18T09:07:50;3.30;;;3.10;;
17181;SDS011;8706;48.254;16.422;2023-09-18T09:10:17;3.03;;;2.83;;
17181;SDS011;8706;48.254;16.422;2023-09-18T09:12:54;3.17;;;2.97;;
17181;SDS011;8706;48.254;16.422;2023-09-18T09:15:23;3.40;;;3.20;;
17181;SDS011;8706;48.254;16.422;2023-09-18T09:17:52;3.30;;;3.10;;
17181;SDS011;8706;48.254;16.422;2023-09-18T09:20:29;3.08;;;2.90;;
17181;SDS011;8706;48.254;16.422;2023-09-18T09:23:01;3.03;;;2.83;;
17181;SDS011;8706;48.254;16.422;2023-09-18T09:25:29;3.00;;;2.80;;
17181;SDS011;8706;48.254;16.422;2023-09-18T09:27:58;2.90;;;2.80;;
17181;SDS011;8706;48.254;16.422;2023-09-18T09:30:26;2.78;;;2.60;;
17181;SDS011;8706;48.254;16.422;2023-09-18T09:32:54;3.08;;;2.88;;
17181;SDS011;8706;48.254;16.422;2023-09-18T09:35:23;3.15;;;2.95;;
17181;SDS011;8706;48.254;16.422;2023-09-18T09:37:52;2.90;;;2.70;;
17181;SDS011;8706;48.254;16.422;2023-09-18T09:40:23;3.38;;;3.17;;
17181;SDS011;8706;48.254;16.422;2023-09-18T09:42:51;3.03;;;2.80;;
17181;SDS011;8706;48.254;16.422;2023-09-18T09:45:25;3.30;;;3.10;;
17181;SDS011;8706;48.254;16.422;2023-09-18T09:47:54;2.70;;;2.58;;
17181;SDS011;8706;48.254;16.422;2023-09-18T09:50:21;3.55;;;3.35;;
17181;SDS011;8706;48.254;16.422;2023-09-18T09:52:51;2.80;;;2.70;;
17181;SDS011;8706;48.254;16.422;2023-09-18T09:55:24;2.60;;;2.50;;
17181;SDS011;8706;48.254;16.422;2023-09-18T09:57:54;2.95;;;2.75;;
17181;SDS011;8706;48.254;16.422;2023-09-18T10:00:25;3.10;;;2.90;;
17181;SDS011;8706;48.254;16.422;2023-09-18T10:02:59;3.08;;;2.88;;
17181;SDS011;8706;48.254;16.422;2023-09-18T10:05:28;2.78;;;2.67;;
17181;SDS011;8706;48.254;16.422;2023-09-18T10:08:00;3.10;;;2.90;;
17181;SDS011;8706;48.254;16.422;2023-09-18T10:10:33;3.35;;;3.15;;
17181;SDS011;8706;48.254;16.422;2023-09-18T10:13:03;3.00;;;2.85;;
17181;SDS011;8706;48.254;16.422;2023-09-18T10:15:36;3.22;;;3.03;;
17181;SDS011;8706;48.254;16.422;2023-09-18T10:18:16;3.20;;;3.00;;
17181;SDS011;8706;48.254;16.422;2023-09-18T10:20:47;3.13;;;2.92;;
17181;SDS011;8706;48.254;16.422;2023-09-18T10:23:20;2.80;;;2.70;;
17181;SDS011;8706;48.254;16.422;2023-09-18T10:25:55;2.80;;;2.70;;
17181;SDS011;8706;48.254;16.422;2023-09-18T10:28:28;2.80;;;2.70;;
17181;SDS011;8706;48.254;16.422;2023-09-18T10:30:56;3.00;;;2.80;;
17181;SDS011;8706;48.254;16.422;2023-09-18T10:33:24;3.30;;;3.00;;
17181;SDS011;8706;48.254;16.422;2023-09-18T10:35:52;3.20;;;3.00;;
17181;SDS011;8706;48.254;16.422;2023-09-18T10:38:20;3.22;;;3.03;;
17181;SDS011;8706;48.254;16.422;2023-09-18T10:40:47;3.00;;;2.80;;
17181;SDS011;8706;48.254;16.422;2023-09-18T10:43:17;3.15;;;2.95;;
17181;SDS011;8706;48.254;16.422;2023-09-18T10:45:44;2.90;;;2.70;;
17181;SDS011;8706;48.254;16.422;2023-09-18T10:48:11;2.90;;;2.70;;
17181;SDS011;8706;48.254;16.422;2023-09-18T10:50:39;3.55;;;3.35;;
17181;SDS011;8706;48.254;16.422;2023-09-18T10:53:12;3.30;;;3.10;;
17181;SDS011;8706;48.254;16.422;2023-09-18T10:55:40;3.20;;;3.00;;
17181;SDS011;8706;48.254;16.422;2023-09-18T10:58:08;3.17;;;2.97;;
17181;SDS011;8706;48.254;16.422;2023-09-18T11:00:36;3.15;;;2.95;;
17181;SDS011;8706;48.254;16.422;2023-09-18T11:03:09;3.30;;;3.05;;
17181;SDS011;8706;48.254;16.422;2023-09-18T11:05:38;3.25;;;3.05;;
17181;SDS011;8706;48.254;16.422;2023-09-18T11:08:24;3.42;;;3.22;;
17181;SDS011;8706;48.254;16.422;2023-09-18T11:10:59;3.00;;;2.80;;
17181;SDS011;8706;48.254;16.422;2023-09-18T11:13:35;3.30;;;3.10;;
17181;SDS011;8706;48.254;16.422;2023-09-18T11:16:15;3.33;;;3.08;;
17181;SDS011;8706;48.254;16.422;2023-09-18T11:18:45;3.08;;;2.83;;
17181;SDS011;8706;48.254;16.422;2023-09-18T11:21:15;2.80;;;2.70;;
17181;SDS011;8706;48.254;16.422;2023-09-18T11:23:43;3.13;;;2.90;;
17181;SDS011;8706;48.254;16.422;2023-09-18T11:26:11;2.88;;;2.72;;
17181;SDS011;8706;48.254;16.422;2023-09-18T11:28:38;3.35;;;3.15;;
17181;SDS011;8706;48.254;16.422;2023-09-18T11:31:07;3.40;;;3.20;;
17181;SDS011;8706;48.254;16.422;2023-09-18T11:33:36;2.80;;;2.60;;
17181;SDS011;8706;48.254;16.422;2023-09-18T11:36:05;3.00;;;2.85;;
17181;SDS011;8706;48.254;16.422;2023-09-18T11:38:36;3.10;;;2.90;;
17181;SDS011;8706;48.254;16.422;2023-09-18T11:41:23;2.78;;;2.60;;
17181;SDS011;8706;48.254;16.422;2023-09-18T11:43:51;3.13;;;2.92;;
17181;SDS011;8706;48.254;16.422;2023-09-18T11:46:19;2.67;;;2.58;;
17181;SDS011;8706;48.254;16.422;2023-09-18T11:48:49;3.33;;;3.13;;
17181;SDS011;8706;48.254;16.422;2023-09-18T11:51:23;3.33;;;3.13;;
17181;SDS011;8706;48.254;16.422;2023-09-18T11:53:53;3.00;;;2.80;;
17181;SDS011;8706;48.254;16.422;2023-09-18T11:56:22;3.38;;;3.17;;
17181;SDS011;8706;48.254;16.422;2023-09-18T11:58:49;3.00;;;2.80;;
17181;SDS011;8706;48.254;16.422;2023-09-18T12:01:17;3.35;;;3.13;;
17181;SDS011;8706;48.254;16.422;2023-09-18T12:03:45;3.60;;;3.40;;
17181;SDS011;8706;48.254;16.422;2023-09-18T12:06:15;3.50;;;3.30;;
17181;SDS011;8706;48.254;16.422;2023-09-18T12:08:43;2.90;;;2.70;;
17181;SDS011;8706;48.254;16.422;2023-09-18T12:11:11;3.13;;;2.92;;
17181;SDS011;8706;48.254;16.422;2023-09-18T12:13:41;3.10;;;2.90;;
17181;SDS011;8706;48.254;16.422;2023-09-18T12:16:09;3.47;;;3.28;;
17181;SDS011;8706;48.254;16.422;2023-09-18T12:18:36;3.30;;;3.10;;
17181;SDS011;8706;48.254;16.422;2023-09-18T12:21:12;3.47;;;3.28;;
17181;SDS011;8706;48.254;16.422;2023-09-18T12:23:42;3.17;;;2.97;;
17181;SDS011;8706;48.254;16.422;2023-09-18T12:26:10;3.10;;;2.90;;
17181;SDS011;8706;48.254;16.422;2023-09-18T12:28:38;2.90;;;2.70;;
17181;SDS011;8706;48.254;16.422;2023-09-18T12:31:09;3.10;;;2.90;;
17181;SDS011;8706;48.254;16.422;2023-09-18T12:33:36;3.63;;;3.42;;
17181;SDS011;8706;48.254;16.422;2023-09-18T12:36:05;3.33;;;3.10;;
17181;SDS011;8706;48.254;16.422;2023-09-18T12:38:34;3.33;;;3.13;;
17181;SDS011;8706;48.254;16.422;2023-09-18T12:41:02;3.30;;;3.10;;
17181;SDS011;8706;48.254;16.422;2023-09-18T12:43:33;3.38;;;3.13;;
17181;SDS011;8706;48.254;16.422;2023-09-18T12:46:01;3.03;;;2.83;;
17181;SDS011;8706;48.254;16.422;2023-09-18T12:48:30;3.10;;;2.90;;
17181;SDS011;8706;48.254;16.422;2023-09-18T12:51:02;3.17;;;2.97;;
17181;SDS011;8706;48.254;16.422;2023-09-18T12:53:30;2.90;;;2.70;;
17181;SDS011;8706;48.254;16.422;2023-09-18T12:56:05;3.50;;;3.30;;
17181;SDS011;8706;48.254;16.422;2023-09-18T12:58:33;3.00;;;2.80;;
17181;SDS011;8706;48.254;16.422;2023-09-18T13:01:03;2.97;;;2.63;;
17181;SDS011;8706;48.254;16.422;2023-09-18T13:03:33;3.25;;;3.05;;
17181;SDS011;8706;48.254;16.422;2023-09-18T13:06:07;3.45;;;3.25;;
17181;SDS011;8706;48.254;16.422;2023-09-18T13:08:35;3.50;;;3.30;;
17181;SDS011;8706;48.254;16.422;2023-09-18T13:11:02;3.03;;;2.83;;
17181;SDS011;8706;48.254;16.422;2023-09-18T13:13:30;3.63;;;3.42;;
17181;SDS011;8706;48.254;16.422;2023-09-18T13:15:58;3.03;;;2.83;;
17181;SDS011;8706;48.254;16.422;2023-09-18T13:18:25;3.17;;;3.00;;
17181;SDS011;8706;48.254;16.422;2023-09-18T13:20:53;3.45;;;3.15;;
17181;SDS011;8706;48.254;16.422;2023-09-18T13:23:20;3.35;;;3.15;;
17181;SDS011;8706;48.254;16.422;2023-09-18T13:25:58;3.30;;;3.10;;
17181;SDS011;8706;48.254;16.422;2023-09-18T13:28:25;2.97;;;2.80;;
17181;SDS011;8706;48.254;16.422;2023-09-18T13:30:54;2.88;;;2.78;;
17181;SDS011;8706;48.254;16.422;2023-09-18T13:33:20;3.60;;;3.40;;
17181;SDS011;8706;48.254;16.422;2023-09-18T13:35:49;3.33;;;3.13;;
17181;SDS011;8706;48.254;16.422;2023-09-18T13:38:15;3.65;;;3.45;;
17181;SDS011;8706;48.254;16.422;2023-09-18T13:40:44;3.20;;;3.00;;
17181;SDS011;8706;48.254;16.422;2023-09-18T13:43:12;3.42;;;3.17;;
17181;SDS011;8706;48.254;16.422;2023-09-18T13:45:41;3.33;;;3.13;;
17181;SDS011;8706;48.254;16.422;2023-09-18T13:48:09;3.40;;;3.20;;
17181;SDS011;8706;48.254;16.422;2023-09-18T13:50:37;3.10;;;2.90;;
17181;SDS011;8706;48.254;16.422;2023-09-18T13:53:04;3.25;;;3.05;;
17181;SDS011;8706;48.254;16.422;2023-09-18T13:55:32;3.20;;;3.00;;
17181;SDS011;8706;48.254;16.422;2023-09-18T13:57:59;3.35;;;3.15;;
17181;SDS011;8706;48.254;16.422;2023-09-18T14:00:28;3.20;;;3.00;;
17181;SDS011;8706;48.254;16.422;2023-09-18T14:02:56;3.58;;;3.38;;
17181;SDS011;8706;48.254;16.422;2023-09-18T14:05:24;3.25;;;3.03;;
17181;SDS011;8706;48.254;16.422;2023-09-18T14:07:52;4.07;;;3.55;;
17181;SDS011;8706;48.254;16.422;2023-09-18T14:10:24;3.15;;;2.95;;
17181;SDS011;8706;48.254;16.422;2023-09-18T14:12:52;3.10;;;2.90;;
17181;SDS011;8706;48.254;16.422;2023-09-18T14:15:19;3.30;;;3.10;;
17181;SDS011;8706;48.254;16.422;2023-09-18T14:17:46;3.25;;;3.05;;
17181;SDS011;8706;48.254;16.422;2023-09-18T14:20:13;3.22;;;3.03;;
17181;SDS011;8706;48.254;16.422;2023-09-18T14:22:45;3.60;;;3.20;;
17181;SDS011;8706;48.254;16.422;2023-09-18T14:25:15;3.40;;;3.10;;
17181;SDS011;8706;48.254;16.422;2023-09-18T14:27:45;3.17;;;2.97;;
17181;SDS011;8706;48.254;16.422;2023-09-18T14:30:12;3.75;;;3.55;;
17181;SDS011;8706;48.254;16.422;2023-09-18T14:32:39;3.50;;;3.30;;
17181;SDS011;8706;48.254;16.422;2023-09-18T14:35:07;3.40;;;3.20;;
17181;SDS011;8706;48.254;16.422;2023-09-18T14:37:36;3.78;;;3.50;;
17181;SDS011;8706;48.254;16.422;2023-09-18T14:40:07;3.63;;;3.42;;
17181;SDS011;8706;48.254;16.422;2023-09-18T14:42:37;3.40;;;3.20;;
17181;SDS011;8706;48.254;16.422;2023-09-18T14:45:05;3.92;;;3.50;;
17181;SDS011;8706;48.254;16.422;2023-09-18T14:47:33;3.45;;;3.22;;
17181;SDS011;8706;48.254;16.422;2023-09-18T14:50:01;3.25;;;3.05;;
17181;SDS011;8706;48.254;16.422;2023-09-18T14:52:30;4.10;;;3.88;;
17181;SDS011;8706;48.254;16.422;2023-09-18T14:54:58;3.63;;;3.42;;